Terminal Aerodrome Forecast
Issued by NWS

Home | Current Version | Previous Version | Text Only | Print | Product List | Glossary On
Versions: 1 2 3 4 5 6 7 8 9 10 11 12 13 14
000
FTUS45 KRIW 232339
TAFJAC
TAF
KJAC 232339Z 2400/2424 34008KT P6SM VCSH SCT040 BKN060
     FM240200 01007KT P6SM SCT070
     FM241900 19008KT P6SM SCT060 BKN120
      AMD LTD TO CLD VIS AND WIND=

USA.gov is the U.S. government's official web portal to all federal, state and local government web resources and services.